sensor_id;sensor_type;location;lat;lon;timestamp;P1;durP1;ratioP1;P2;durP2;ratioP2
22449;SDS011;11392;57.390;-2.468;2023-03-29T00:02:04;11.98;;;9.40;;
22449;SDS011;11392;57.390;-2.468;2023-03-29T00:04:33;11.95;;;9.52;;
22449;SDS011;11392;57.390;-2.468;2023-03-29T00:07:00;11.80;;;9.70;;
22449;SDS011;11392;57.390;-2.468;2023-03-29T00:09:30;17.42;;;10.45;;
22449;SDS011;11392;57.390;-2.468;2023-03-29T00:11:59;18.88;;;13.32;;
22449;SDS011;11392;57.390;-2.468;2023-03-29T00:14:27;17.83;;;11.93;;
22449;SDS011;11392;57.390;-2.468;2023-03-29T00:16:56;17.48;;;12.57;;
22449;SDS011;11392;57.390;-2.468;2023-03-29T00:19:24;13.23;;;10.40;;
22449;SDS011;11392;57.390;-2.468;2023-03-29T00:21:51;15.40;;;11.70;;
22449;SDS011;11392;57.390;-2.468;2023-03-29T00:24:18;18.98;;;14.27;;
22449;SDS011;11392;57.390;-2.468;2023-03-29T00:26:49;20.77;;;13.88;;
22449;SDS011;11392;57.390;-2.468;2023-03-29T00:29:16;17.33;;;11.38;;
22449;SDS011;11392;57.390;-2.468;2023-03-29T00:31:43;14.60;;;11.18;;
22449;SDS011;11392;57.390;-2.468;2023-03-29T00:34:16;13.82;;;10.05;;
22449;SDS011;11392;57.390;-2.468;2023-03-29T00:36:43;14.75;;;11.07;;
22449;SDS011;11392;57.390;-2.468;2023-03-29T00:39:10;13.77;;;10.80;;
22449;SDS011;11392;57.390;-2.468;2023-03-29T00:41:37;14.30;;;10.73;;
22449;SDS011;11392;57.390;-2.468;2023-03-29T00:44:04;46.30;;;13.95;;
22449;SDS011;11392;57.390;-2.468;2023-03-29T00:46:31;16.15;;;10.25;;
22449;SDS011;11392;57.390;-2.468;2023-03-29T00:49:01;25.23;;;12.77;;
22449;SDS011;11392;57.390;-2.468;2023-03-29T00:51:35;24.88;;;12.40;;
22449;SDS011;11392;57.390;-2.468;2023-03-29T00:54:06;13.27;;;9.65;;
22449;SDS011;11392;57.390;-2.468;2023-03-29T00:56:40;14.48;;;9.73;;
22449;SDS011;11392;57.390;-2.468;2023-03-29T00:59:11;16.20;;;11.57;;
22449;SDS011;11392;57.390;-2.468;2023-03-29T01:01:44;12.77;;;9.23;;
22449;SDS011;11392;57.390;-2.468;2023-03-29T01:04:22;16.15;;;11.20;;
22449;SDS011;11392;57.390;-2.468;2023-03-29T01:07:03;14.30;;;10.55;;
22449;SDS011;11392;57.390;-2.468;2023-03-29T01:09:35;19.95;;;12.45;;
22449;SDS011;11392;57.390;-2.468;2023-03-29T01:12:08;23.20;;;11.85;;
22449;SDS011;11392;57.390;-2.468;2023-03-29T01:15:05;59.38;;;13.63;;
22449;SDS011;11392;57.390;-2.468;2023-03-29T01:17:39;15.93;;;9.23;;
22449;SDS011;11392;57.390;-2.468;2023-03-29T01:22:53;31.00;;;9.38;;
22449;SDS011;11392;57.390;-2.468;2023-03-29T01:28:33;40.08;;;11.25;;
22449;SDS011;11392;57.390;-2.468;2023-03-29T01:31:06;23.98;;;8.38;;
22449;SDS011;11392;57.390;-2.468;2023-03-29T01:33:37;20.02;;;7.32;;
22449;SDS011;11392;57.390;-2.468;2023-03-29T01:36:14;57.88;;;10.80;;
22449;SDS011;11392;57.390;-2.468;2023-03-29T01:39:03;25.40;;;8.45;;
22449;SDS011;11392;57.390;-2.468;2023-03-29T01:41:43;41.92;;;9.88;;
22449;SDS011;11392;57.390;-2.468;2023-03-29T01:50:34;13.55;;;6.65;;
22449;SDS011;11392;57.390;-2.468;2023-03-29T01:53:12;8.73;;;6.68;;
22449;SDS011;11392;57.390;-2.468;2023-03-29T01:55:51;14.98;;;6.95;;
22449;SDS011;11392;57.390;-2.468;2023-03-29T01:58:21;55.28;;;10.88;;
22449;SDS011;11392;57.390;-2.468;2023-03-29T02:00:51;19.83;;;7.97;;
22449;SDS011;11392;57.390;-2.468;2023-03-29T02:03:23;15.18;;;6.20;;
22449;SDS011;11392;57.390;-2.468;2023-03-29T02:05:53;29.88;;;7.82;;
22449;SDS011;11392;57.390;-2.468;2023-03-29T02:08:21;77.45;;;11.82;;
22449;SDS011;11392;57.390;-2.468;2023-03-29T02:10:50;52.35;;;10.32;;
22449;SDS011;11392;57.390;-2.468;2023-03-29T02:13:18;67.78;;;12.32;;
22449;SDS011;11392;57.390;-2.468;2023-03-29T02:15:46;107.47;;;16.30;;
22449;SDS011;11392;57.390;-2.468;2023-03-29T02:18:14;30.88;;;9.38;;
22449;SDS011;11392;57.390;-2.468;2023-03-29T02:20:44;55.20;;;11.15;;
22449;SDS011;11392;57.390;-2.468;2023-03-29T02:23:15;23.67;;;8.75;;
22449;SDS011;11392;57.390;-2.468;2023-03-29T02:25:44;82.13;;;14.13;;
22449;SDS011;11392;57.390;-2.468;2023-03-29T02:28:15;56.42;;;11.05;;
22449;SDS011;11392;57.390;-2.468;2023-03-29T02:30:45;27.95;;;9.85;;
22449;SDS011;11392;57.390;-2.468;2023-03-29T02:33:43;24.52;;;11.50;;
22449;SDS011;11392;57.390;-2.468;2023-03-29T02:36:22;101.82;;;19.70;;
22449;SDS011;11392;57.390;-2.468;2023-03-29T02:38:53;177.07;;;26.63;;
22449;SDS011;11392;57.390;-2.468;2023-03-29T02:41:23;378.92;;;49.97;;
22449;SDS011;11392;57.390;-2.468;2023-03-29T02:43:51;399.35;;;49.38;;
22449;SDS011;11392;57.390;-2.468;2023-03-29T02:46:21;283.80;;;39.58;;
22449;SDS011;11392;57.390;-2.468;2023-03-29T02:48:49;56.42;;;13.43;;
22449;SDS011;11392;57.390;-2.468;2023-03-29T02:51:20;26.90;;;10.32;;
22449;SDS011;11392;57.390;-2.468;2023-03-29T02:54:00;134.05;;;18.83;;
22449;SDS011;11392;57.390;-2.468;2023-03-29T02:56:41;229.20;;;26.27;;
22449;SDS011;11392;57.390;-2.468;2023-03-29T02:59:20;127.75;;;20.30;;
22449;SDS011;11392;57.390;-2.468;2023-03-29T03:01:51;136.60;;;17.80;;
22449;SDS011;11392;57.390;-2.468;2023-03-29T03:04:19;152.80;;;19.88;;
22449;SDS011;11392;57.390;-2.468;2023-03-29T03:06:46;143.65;;;18.80;;
22449;SDS011;11392;57.390;-2.468;2023-03-29T03:09:13;45.60;;;12.07;;
22449;SDS011;11392;57.390;-2.468;2023-03-29T03:11:40;127.72;;;17.38;;
22449;SDS011;11392;57.390;-2.468;2023-03-29T03:14:08;118.32;;;16.38;;
22449;SDS011;11392;57.390;-2.468;2023-03-29T03:16:35;153.80;;;17.63;;
22449;SDS011;11392;57.390;-2.468;2023-03-29T03:19:03;126.10;;;16.23;;
22449;SDS011;11392;57.390;-2.468;2023-03-29T03:21:30;83.40;;;13.40;;
22449;SDS011;11392;57.390;-2.468;2023-03-29T03:23:57;83.28;;;13.68;;
22449;SDS011;11392;57.390;-2.468;2023-03-29T03:26:24;147.63;;;18.25;;
22449;SDS011;11392;57.390;-2.468;2023-03-29T03:28:55;41.08;;;11.65;;
22449;SDS011;11392;57.390;-2.468;2023-03-29T03:31:22;23.20;;;8.02;;
22449;SDS011;11392;57.390;-2.468;2023-03-29T03:33:50;159.00;;;19.85;;
22449;SDS011;11392;57.390;-2.468;2023-03-29T03:36:18;103.20;;;15.73;;
22449;SDS011;11392;57.390;-2.468;2023-03-29T03:38:51;31.05;;;10.20;;
22449;SDS011;11392;57.390;-2.468;2023-03-29T03:41:18;51.03;;;11.68;;
22449;SDS011;11392;57.390;-2.468;2023-03-29T03:43:45;57.45;;;11.63;;
22449;SDS011;11392;57.390;-2.468;2023-03-29T03:46:14;42.90;;;9.68;;
22449;SDS011;11392;57.390;-2.468;2023-03-29T03:48:43;118.80;;;17.42;;
22449;SDS011;11392;57.390;-2.468;2023-03-29T03:51:11;83.68;;;13.70;;
22449;SDS011;11392;57.390;-2.468;2023-03-29T03:53:38;70.97;;;16.00;;
22449;SDS011;11392;57.390;-2.468;2023-03-29T03:56:05;21.67;;;9.55;;
22449;SDS011;11392;57.390;-2.468;2023-03-29T03:58:36;107.30;;;18.92;;
22449;SDS011;11392;57.390;-2.468;2023-03-29T04:01:04;56.03;;;14.52;;
22449;SDS011;11392;57.390;-2.468;2023-03-29T04:03:31;49.00;;;11.30;;
22449;SDS011;11392;57.390;-2.468;2023-03-29T04:05:59;37.08;;;13.38;;
22449;SDS011;11392;57.390;-2.468;2023-03-29T04:08:27;75.65;;;15.55;;
22449;SDS011;11392;57.390;-2.468;2023-03-29T04:10:54;66.13;;;15.27;;
22449;SDS011;11392;57.390;-2.468;2023-03-29T04:13:24;21.48;;;12.68;;
22449;SDS011;11392;57.390;-2.468;2023-03-29T04:15:52;17.38;;;9.70;;
22449;SDS011;11392;57.390;-2.468;2023-03-29T04:18:24;39.30;;;13.65;;
22449;SDS011;11392;57.390;-2.468;2023-03-29T04:20:52;25.67;;;14.05;;
22449;SDS011;11392;57.390;-2.468;2023-03-29T04:23:19;19.40;;;13.05;;
22449;SDS011;11392;57.390;-2.468;2023-03-29T04:25:46;34.58;;;14.52;;
22449;SDS011;11392;57.390;-2.468;2023-03-29T04:28:13;46.85;;;16.55;;
22449;SDS011;11392;57.390;-2.468;2023-03-29T04:30:40;15.73;;;10.05;;
22449;SDS011;11392;57.390;-2.468;2023-03-29T04:33:07;19.00;;;12.10;;
22449;SDS011;11392;57.390;-2.468;2023-03-29T04:35:35;32.20;;;14.25;;
22449;SDS011;11392;57.390;-2.468;2023-03-29T04:38:03;26.33;;;12.48;;
22449;SDS011;11392;57.390;-2.468;2023-03-29T04:40:30;34.95;;;14.73;;
22449;SDS011;11392;57.390;-2.468;2023-03-29T04:42:58;54.97;;;17.67;;
22449;SDS011;11392;57.390;-2.468;2023-03-29T04:45:26;87.18;;;19.60;;
22449;SDS011;11392;57.390;-2.468;2023-03-29T04:47:57;80.43;;;19.23;;
22449;SDS011;11392;57.390;-2.468;2023-03-29T04:50:27;31.35;;;14.65;;
22449;SDS011;11392;57.390;-2.468;2023-03-29T04:52:54;46.50;;;17.10;;
22449;SDS011;11392;57.390;-2.468;2023-03-29T04:55:22;29.25;;;14.55;;
22449;SDS011;11392;57.390;-2.468;2023-03-29T04:57:49;32.58;;;13.77;;
22449;SDS011;11392;57.390;-2.468;2023-03-29T05:00:16;19.73;;;13.13;;
22449;SDS011;11392;57.390;-2.468;2023-03-29T05:02:45;89.88;;;22.80;;
22449;SDS011;11392;57.390;-2.468;2023-03-29T05:05:13;61.85;;;17.75;;
22449;SDS011;11392;57.390;-2.468;2023-03-29T05:07:40;105.57;;;23.00;;
22449;SDS011;11392;57.390;-2.468;2023-03-29T05:10:07;58.13;;;17.10;;
22449;SDS011;11392;57.390;-2.468;2023-03-29T05:12:35;227.88;;;34.00;;
22449;SDS011;11392;57.390;-2.468;2023-03-29T05:15:03;39.85;;;15.57;;
22449;SDS011;11392;57.390;-2.468;2023-03-29T05:17:31;74.55;;;17.85;;
22449;SDS011;11392;57.390;-2.468;2023-03-29T05:19:58;31.80;;;14.40;;
22449;SDS011;11392;57.390;-2.468;2023-03-29T05:22:27;32.72;;;13.38;;
22449;SDS011;11392;57.390;-2.468;2023-03-29T05:24:54;145.35;;;22.30;;
22449;SDS011;11392;57.390;-2.468;2023-03-29T05:27:22;119.03;;;17.48;;
22449;SDS011;11392;57.390;-2.468;2023-03-29T05:29:49;82.13;;;17.45;;
22449;SDS011;11392;57.390;-2.468;2023-03-29T05:32:16;23.77;;;12.30;;
22449;SDS011;11392;57.390;-2.468;2023-03-29T05:34:44;20.23;;;11.13;;
22449;SDS011;11392;57.390;-2.468;2023-03-29T05:37:11;25.10;;;9.13;;
22449;SDS011;11392;57.390;-2.468;2023-03-29T05:39:38;90.55;;;15.07;;
22449;SDS011;11392;57.390;-2.468;2023-03-29T05:42:05;91.60;;;14.02;;
22449;SDS011;11392;57.390;-2.468;2023-03-29T05:44:32;66.30;;;12.82;;
22449;SDS011;11392;57.390;-2.468;2023-03-29T05:47:00;85.28;;;14.80;;
22449;SDS011;11392;57.390;-2.468;2023-03-29T05:49:27;23.20;;;9.25;;
22449;SDS011;11392;57.390;-2.468;2023-03-29T05:51:54;41.88;;;11.38;;
22449;SDS011;11392;57.390;-2.468;2023-03-29T05:54:24;18.10;;;8.82;;
22449;SDS011;11392;57.390;-2.468;2023-03-29T05:56:51;175.75;;;25.27;;
22449;SDS011;11392;57.390;-2.468;2023-03-29T05:59:18;108.45;;;19.33;;
22449;SDS011;11392;57.390;-2.468;2023-03-29T06:01:45;69.13;;;14.65;;
22449;SDS011;11392;57.390;-2.468;2023-03-29T06:04:12;153.32;;;19.48;;
22449;SDS011;11392;57.390;-2.468;2023-03-29T06:06:40;75.35;;;14.27;;
22449;SDS011;11392;57.390;-2.468;2023-03-29T06:09:07;125.50;;;18.45;;
22449;SDS011;11392;57.390;-2.468;2023-03-29T06:11:35;94.57;;;19.10;;
22449;SDS011;11392;57.390;-2.468;2023-03-29T06:14:02;78.53;;;18.77;;
22449;SDS011;11392;57.390;-2.468;2023-03-29T06:16:29;78.68;;;17.48;;
22449;SDS011;11392;57.390;-2.468;2023-03-29T06:18:57;39.63;;;13.90;;
22449;SDS011;11392;57.390;-2.468;2023-03-29T06:21:24;31.52;;;16.23;;
22449;SDS011;11392;57.390;-2.468;2023-03-29T06:23:52;21.88;;;13.82;;
22449;SDS011;11392;57.390;-2.468;2023-03-29T06:26:19;21.08;;;12.88;;
22449;SDS011;11392;57.390;-2.468;2023-03-29T06:28:46;24.02;;;14.18;;
22449;SDS011;11392;57.390;-2.468;2023-03-29T06:31:17;22.17;;;14.40;;
22449;SDS011;11392;57.390;-2.468;2023-03-29T06:33:45;31.58;;;15.65;;
22449;SDS011;11392;57.390;-2.468;2023-03-29T06:36:12;26.05;;;15.73;;
22449;SDS011;11392;57.390;-2.468;2023-03-29T06:38:41;38.35;;;17.27;;
22449;SDS011;11392;57.390;-2.468;2023-03-29T06:41:09;25.45;;;15.02;;
22449;SDS011;11392;57.390;-2.468;2023-03-29T06:43:38;27.05;;;15.43;;
22449;SDS011;11392;57.390;-2.468;2023-03-29T06:46:05;25.55;;;13.82;;
22449;SDS011;11392;57.390;-2.468;2023-03-29T06:48:38;19.70;;;12.13;;
22449;SDS011;11392;57.390;-2.468;2023-03-29T06:51:05;20.95;;;11.88;;
22449;SDS011;11392;57.390;-2.468;2023-03-29T06:53:33;32.78;;;15.88;;
22449;SDS011;11392;57.390;-2.468;2023-03-29T06:56:00;34.38;;;17.35;;
22449;SDS011;11392;57.390;-2.468;2023-03-29T06:58:34;21.60;;;14.02;;
22449;SDS011;11392;57.390;-2.468;2023-03-29T07:01:01;28.20;;;16.27;;
22449;SDS011;11392;57.390;-2.468;2023-03-29T07:03:30;24.20;;;14.13;;
22449;SDS011;11392;57.390;-2.468;2023-03-29T07:06:00;32.13;;;17.02;;
22449;SDS011;11392;57.390;-2.468;2023-03-29T07:08:35;29.10;;;16.63;;
22449;SDS011;11392;57.390;-2.468;2023-03-29T07:11:09;27.38;;;16.17;;
22449;SDS011;11392;57.390;-2.468;2023-03-29T07:13:40;25.05;;;15.05;;
22449;SDS011;11392;57.390;-2.468;2023-03-29T07:16:09;23.23;;;14.88;;
22449;SDS011;11392;57.390;-2.468;2023-03-29T07:18:40;23.15;;;14.05;;
22449;SDS011;11392;57.390;-2.468;2023-03-29T07:21:09;24.75;;;15.50;;
22449;SDS011;11392;57.390;-2.468;2023-03-29T07:23:38;30.13;;;17.52;;
22449;SDS011;11392;57.390;-2.468;2023-03-29T07:26:05;25.27;;;15.55;;
22449;SDS011;11392;57.390;-2.468;2023-03-29T07:28:36;24.88;;;14.45;;
22449;SDS011;11392;57.390;-2.468;2023-03-29T07:31:05;21.70;;;13.07;;
22449;SDS011;11392;57.390;-2.468;2023-03-29T07:33:36;28.88;;;15.38;;
22449;SDS011;11392;57.390;-2.468;2023-03-29T07:36:05;24.73;;;15.00;;
22449;SDS011;11392;57.390;-2.468;2023-03-29T07:38:32;25.85;;;15.93;;
22449;SDS011;11392;57.390;-2.468;2023-03-29T07:41:01;28.27;;;17.10;;
22449;SDS011;11392;57.390;-2.468;2023-03-29T07:43:30;30.52;;;17.00;;
22449;SDS011;11392;57.390;-2.468;2023-03-29T07:46:00;27.55;;;16.60;;
22449;SDS011;11392;57.390;-2.468;2023-03-29T07:48:30;34.58;;;18.92;;
22449;SDS011;11392;57.390;-2.468;2023-03-29T07:50:58;35.25;;;20.00;;
22449;SDS011;11392;57.390;-2.468;2023-03-29T07:53:25;28.05;;;16.60;;
22449;SDS011;11392;57.390;-2.468;2023-03-29T07:55:55;37.17;;;20.58;;
22449;SDS011;11392;57.390;-2.468;2023-03-29T07:58:22;27.77;;;16.52;;
22449;SDS011;11392;57.390;-2.468;2023-03-29T08:00:49;32.10;;;18.70;;
22449;SDS011;11392;57.390;-2.468;2023-03-29T08:03:16;25.90;;;16.63;;
22449;SDS011;11392;57.390;-2.468;2023-03-29T08:05:43;31.98;;;19.08;;
22449;SDS011;11392;57.390;-2.468;2023-03-29T08:08:10;26.15;;;15.40;;
22449;SDS011;11392;57.390;-2.468;2023-03-29T08:10:39;26.17;;;15.48;;
22449;SDS011;11392;57.390;-2.468;2023-03-29T08:13:08;32.58;;;17.58;;
22449;SDS011;11392;57.390;-2.468;2023-03-29T08:15:36;33.75;;;18.48;;
22449;SDS011;11392;57.390;-2.468;2023-03-29T08:18:05;30.20;;;17.38;;
22449;SDS011;11392;57.390;-2.468;2023-03-29T08:20:32;31.73;;;17.67;;
22449;SDS011;11392;57.390;-2.468;2023-03-29T08:22:59;27.27;;;16.30;;
22449;SDS011;11392;57.390;-2.468;2023-03-29T08:25:27;22.60;;;14.70;;
22449;SDS011;11392;57.390;-2.468;2023-03-29T08:27:54;26.95;;;15.88;;
22449;SDS011;11392;57.390;-2.468;2023-03-29T08:30:21;30.17;;;17.88;;
22449;SDS011;11392;57.390;-2.468;2023-03-29T08:32:48;34.17;;;18.05;;
22449;SDS011;11392;57.390;-2.468;2023-03-29T08:35:18;33.63;;;17.65;;
22449;SDS011;11392;57.390;-2.468;2023-03-29T08:37:47;28.70;;;19.05;;
22449;SDS011;11392;57.390;-2.468;2023-03-29T08:40:21;36.20;;;20.23;;
22449;SDS011;11392;57.390;-2.468;2023-03-29T08:50:58;35.85;;;19.88;;
22449;SDS011;11392;57.390;-2.468;2023-03-29T08:53:35;36.83;;;20.13;;
22449;SDS011;11392;57.390;-2.468;2023-03-29T08:56:14;37.28;;;21.17;;
22449;SDS011;11392;57.390;-2.468;2023-03-29T08:58:45;34.45;;;20.05;;
22449;SDS011;11392;57.390;-2.468;2023-03-29T09:01:13;42.95;;;21.52;;
22449;SDS011;11392;57.390;-2.468;2023-03-29T09:03:47;37.65;;;22.30;;
22449;SDS011;11392;57.390;-2.468;2023-03-29T09:06:25;35.38;;;19.05;;
22449;SDS011;11392;57.390;-2.468;2023-03-29T09:08:52;36.85;;;21.42;;
22449;SDS011;11392;57.390;-2.468;2023-03-29T09:11:22;35.22;;;20.85;;
22449;SDS011;11392;57.390;-2.468;2023-03-29T09:14:08;37.53;;;20.27;;
22449;SDS011;11392;57.390;-2.468;2023-03-29T09:19:22;32.38;;;19.20;;
22449;SDS011;11392;57.390;-2.468;2023-03-29T09:21:57;32.95;;;19.45;;
22449;SDS011;11392;57.390;-2.468;2023-03-29T09:27:41;31.15;;;19.15;;
22449;SDS011;11392;57.390;-2.468;2023-03-29T09:32:52;28.27;;;17.35;;
22449;SDS011;11392;57.390;-2.468;2023-03-29T09:38:39;27.13;;;15.15;;
22449;SDS011;11392;57.390;-2.468;2023-03-29T09:41:26;24.50;;;15.38;;
22449;SDS011;11392;57.390;-2.468;2023-03-29T09:44:19;32.28;;;19.75;;
22449;SDS011;11392;57.390;-2.468;2023-03-29T09:49:33;27.08;;;17.40;;
22449;SDS011;11392;57.390;-2.468;2023-03-29T09:52:06;27.70;;;16.38;;
22449;SDS011;11392;57.390;-2.468;2023-03-29T09:54:37;21.88;;;14.60;;
22449;SDS011;11392;57.390;-2.468;2023-03-29T09:57:05;23.17;;;12.35;;
22449;SDS011;11392;57.390;-2.468;2023-03-29T09:59:34;19.15;;;12.25;;
22449;SDS011;11392;57.390;-2.468;2023-03-29T10:02:05;22.15;;;13.00;;
22449;SDS011;11392;57.390;-2.468;2023-03-29T10:04:35;15.65;;;10.95;;
22449;SDS011;11392;57.390;-2.468;2023-03-29T10:07:02;17.80;;;11.73;;
22449;SDS011;11392;57.390;-2.468;2023-03-29T10:09:31;17.10;;;10.70;;
22449;SDS011;11392;57.390;-2.468;2023-03-29T10:12:00;15.77;;;11.00;;
22449;SDS011;11392;57.390;-2.468;2023-03-29T10:14:41;16.70;;;10.52;;
22449;SDS011;11392;57.390;-2.468;2023-03-29T10:17:21;16.02;;;11.27;;
22449;SDS011;11392;57.390;-2.468;2023-03-29T10:19:56;14.07;;;8.80;;
22449;SDS011;11392;57.390;-2.468;2023-03-29T10:22:38;15.68;;;8.68;;
22449;SDS011;11392;57.390;-2.468;2023-03-29T10:25:12;10.52;;;7.95;;
22449;SDS011;11392;57.390;-2.468;2023-03-29T10:27:42;13.00;;;8.20;;
22449;SDS011;11392;57.390;-2.468;2023-03-29T10:30:21;10.52;;;8.07;;
22449;SDS011;11392;57.390;-2.468;2023-03-29T10:32:51;15.45;;;7.78;;
22449;SDS011;11392;57.390;-2.468;2023-03-29T10:35:26;10.50;;;7.05;;
22449;SDS011;11392;57.390;-2.468;2023-03-29T10:38:04;10.05;;;7.25;;
22449;SDS011;11392;57.390;-2.468;2023-03-29T10:40:47;8.43;;;6.70;;
22449;SDS011;11392;57.390;-2.468;2023-03-29T10:43:26;11.40;;;7.22;;
22449;SDS011;11392;57.390;-2.468;2023-03-29T10:46:07;10.05;;;7.20;;
22449;SDS011;11392;57.390;-2.468;2023-03-29T10:48:48;12.00;;;7.82;;
22449;SDS011;11392;57.390;-2.468;2023-03-29T10:51:17;12.05;;;8.10;;
22449;SDS011;11392;57.390;-2.468;2023-03-29T10:53:45;10.80;;;7.97;;
22449;SDS011;11392;57.390;-2.468;2023-03-29T11:02:19;14.05;;;9.13;;
22449;SDS011;11392;57.390;-2.468;2023-03-29T11:13:19;13.02;;;9.90;;
22449;SDS011;11392;57.390;-2.468;2023-03-29T11:24:45;11.45;;;8.57;;
22449;SDS011;11392;57.390;-2.468;2023-03-29T11:27:37;13.13;;;9.00;;
22449;SDS011;11392;57.390;-2.468;2023-03-29T11:30:26;11.25;;;9.05;;
22449;SDS011;11392;57.390;-2.468;2023-03-29T11:36:16;11.98;;;8.23;;
22449;SDS011;11392;57.390;-2.468;2023-03-29T11:41:40;12.23;;;8.63;;
22449;SDS011;11392;57.390;-2.468;2023-03-29T11:44:29;13.05;;;9.13;;
22449;SDS011;11392;57.390;-2.468;2023-03-29T11:46:59;13.45;;;9.07;;
22449;SDS011;11392;57.390;-2.468;2023-03-29T11:49:29;17.23;;;9.10;;
22449;SDS011;11392;57.390;-2.468;2023-03-29T11:52:05;10.65;;;8.70;;
22449;SDS011;11392;57.390;-2.468;2023-03-29T11:54:50;13.95;;;8.68;;
22449;SDS011;11392;57.390;-2.468;2023-03-29T12:00:06;12.57;;;8.10;;
22449;SDS011;11392;57.390;-2.468;2023-03-29T12:03:05;12.20;;;8.55;;
22449;SDS011;11392;57.390;-2.468;2023-03-29T12:05:41;12.20;;;8.27;;
22449;SDS011;11392;57.390;-2.468;2023-03-29T12:08:50;12.38;;;8.43;;
22449;SDS011;11392;57.390;-2.468;2023-03-29T12:11:30;12.27;;;7.57;;
22449;SDS011;11392;57.390;-2.468;2023-03-29T12:14:08;9.68;;;6.75;;
22449;SDS011;11392;57.390;-2.468;2023-03-29T12:16:56;11.95;;;8.88;;
22449;SDS011;11392;57.390;-2.468;2023-03-29T12:19:33;12.95;;;7.95;;
22449;SDS011;11392;57.390;-2.468;2023-03-29T12:22:08;14.25;;;8.13;;
22449;SDS011;11392;57.390;-2.468;2023-03-29T12:24:37;12.43;;;8.73;;
22449;SDS011;11392;57.390;-2.468;2023-03-29T12:38:14;15.57;;;10.27;;
22449;SDS011;11392;57.390;-2.468;2023-03-29T12:40:53;20.95;;;10.15;;
22449;SDS011;11392;57.390;-2.468;2023-03-29T12:43:26;16.92;;;10.63;;
22449;SDS011;11392;57.390;-2.468;2023-03-29T12:46:13;18.52;;;10.57;;
22449;SDS011;11392;57.390;-2.468;2023-03-29T12:48:42;15.27;;;9.88;;
22449;SDS011;11392;57.390;-2.468;2023-03-29T12:51:18;22.33;;;12.18;;
22449;SDS011;11392;57.390;-2.468;2023-03-29T12:53:50;17.50;;;11.05;;
22449;SDS011;11392;57.390;-2.468;2023-03-29T12:56:19;17.23;;;10.52;;
22449;SDS011;11392;57.390;-2.468;2023-03-29T13:07:11;18.75;;;9.93;;
22449;SDS011;11392;57.390;-2.468;2023-03-29T13:09:50;17.83;;;9.30;;
22449;SDS011;11392;57.390;-2.468;2023-03-29T13:15:05;15.05;;;8.35;;
22449;SDS011;11392;57.390;-2.468;2023-03-29T13:23:16;17.65;;;8.73;;
22449;SDS011;11392;57.390;-2.468;2023-03-29T13:32:02;12.32;;;6.03;;
22449;SDS011;11392;57.390;-2.468;2023-03-29T13:34:49;11.00;;;5.30;;
22449;SDS011;11392;57.390;-2.468;2023-03-29T13:40:41;11.07;;;5.05;;
22449;SDS011;11392;57.390;-2.468;2023-03-29T13:43:19;12.48;;;5.35;;
22449;SDS011;11392;57.390;-2.468;2023-03-29T13:48:26;8.98;;;5.22;;
22449;SDS011;11392;57.390;-2.468;2023-03-29T13:56:27;7.07;;;4.22;;
22449;SDS011;11392;57.390;-2.468;2023-03-29T13:59:12;8.93;;;5.00;;
22449;SDS011;11392;57.390;-2.468;2023-03-29T14:01:48;9.35;;;4.65;;
22449;SDS011;11392;57.390;-2.468;2023-03-29T14:04:24;11.43;;;5.30;;
22449;SDS011;11392;57.390;-2.468;2023-03-29T14:07:04;10.65;;;5.18;;
22449;SDS011;11392;57.390;-2.468;2023-03-29T14:09:34;10.95;;;5.13;;
22449;SDS011;11392;57.390;-2.468;2023-03-29T14:12:08;9.45;;;5.88;;
22449;SDS011;11392;57.390;-2.468;2023-03-29T14:14:39;13.50;;;5.10;;
22449;SDS011;11392;57.390;-2.468;2023-03-29T14:17:23;12.38;;;5.78;;
22449;SDS011;11392;57.390;-2.468;2023-03-29T14:19:51;7.72;;;4.80;;
22449;SDS011;11392;57.390;-2.468;2023-03-29T14:22:19;10.32;;;5.28;;
22449;SDS011;11392;57.390;-2.468;2023-03-29T14:24:51;13.95;;;5.20;;
22449;SDS011;11392;57.390;-2.468;2023-03-29T14:27:20;12.05;;;5.38;;
22449;SDS011;11392;57.390;-2.468;2023-03-29T14:29:49;10.57;;;4.85;;
22449;SDS011;11392;57.390;-2.468;2023-03-29T14:32:18;11.77;;;4.90;;
22449;SDS011;11392;57.390;-2.468;2023-03-29T14:34:53;9.95;;;4.88;;
22449;SDS011;11392;57.390;-2.468;2023-03-29T14:37:21;9.13;;;4.75;;
22449;SDS011;11392;57.390;-2.468;2023-03-29T14:39:50;14.13;;;5.47;;
22449;SDS011;11392;57.390;-2.468;2023-03-29T14:42:18;12.13;;;5.28;;
22449;SDS011;11392;57.390;-2.468;2023-03-29T14:44:49;11.60;;;5.93;;
22449;SDS011;11392;57.390;-2.468;2023-03-29T14:47:23;7.93;;;4.30;;
22449;SDS011;11392;57.390;-2.468;2023-03-29T14:49:58;13.77;;;5.68;;
22449;SDS011;11392;57.390;-2.468;2023-03-29T14:52:30;11.05;;;5.20;;
22449;SDS011;11392;57.390;-2.468;2023-03-29T14:54:59;12.57;;;5.47;;
22449;SDS011;11392;57.390;-2.468;2023-03-29T14:57:31;13.90;;;5.85;;
22449;SDS011;11392;57.390;-2.468;2023-03-29T15:00:02;10.00;;;5.68;;
22449;SDS011;11392;57.390;-2.468;2023-03-29T15:02:46;10.68;;;6.18;;
22449;SDS011;11392;57.390;-2.468;2023-03-29T15:05:32;15.18;;;6.85;;
22449;SDS011;11392;57.390;-2.468;2023-03-29T15:08:05;10.13;;;5.30;;
22449;SDS011;11392;57.390;-2.468;2023-03-29T15:10:35;12.80;;;5.70;;
22449;SDS011;11392;57.390;-2.468;2023-03-29T15:13:04;14.30;;;6.47;;
22449;SDS011;11392;57.390;-2.468;2023-03-29T15:15:34;13.45;;;6.70;;
22449;SDS011;11392;57.390;-2.468;2023-03-29T15:18:04;10.43;;;6.22;;
22449;SDS011;11392;57.390;-2.468;2023-03-29T15:20:33;11.30;;;5.80;;
22449;SDS011;11392;57.390;-2.468;2023-03-29T15:26:28;10.88;;;5.93;;
22449;SDS011;11392;57.390;-2.468;2023-03-29T15:28:43;13.93;;;6.03;;
22449;SDS011;11392;57.390;-2.468;2023-03-29T15:31:13;10.02;;;6.03;;
22449;SDS011;11392;57.390;-2.468;2023-03-29T15:33:43;12.13;;;6.45;;
22449;SDS011;11392;57.390;-2.468;2023-03-29T15:36:11;13.20;;;6.32;;
22449;SDS011;11392;57.390;-2.468;2023-03-29T15:38:40;9.93;;;6.40;;
22449;SDS011;11392;57.390;-2.468;2023-03-29T15:41:11;9.80;;;6.55;;
22449;SDS011;11392;57.390;-2.468;2023-03-29T15:43:39;13.38;;;7.43;;
22449;SDS011;11392;57.390;-2.468;2023-03-29T15:46:06;11.73;;;7.60;;
22449;SDS011;11392;57.390;-2.468;2023-03-29T15:48:36;14.30;;;8.38;;
22449;SDS011;11392;57.390;-2.468;2023-03-29T15:51:03;16.05;;;8.73;;
22449;SDS011;11392;57.390;-2.468;2023-03-29T15:53:32;13.40;;;9.02;;
22449;SDS011;11392;57.390;-2.468;2023-03-29T15:56:00;16.52;;;9.85;;
22449;SDS011;11392;57.390;-2.468;2023-03-29T15:58:30;15.63;;;8.93;;
22449;SDS011;11392;57.390;-2.468;2023-03-29T16:03:37;15.60;;;8.88;;
22449;SDS011;11392;57.390;-2.468;2023-03-29T16:06:05;15.45;;;9.35;;
22449;SDS011;11392;57.390;-2.468;2023-03-29T16:08:35;15.68;;;9.23;;
22449;SDS011;11392;57.390;-2.468;2023-03-29T16:11:02;15.45;;;9.85;;
22449;SDS011;11392;57.390;-2.468;2023-03-29T16:13:31;16.27;;;10.25;;
22449;SDS011;11392;57.390;-2.468;2023-03-29T16:15:58;15.48;;;9.85;;
22449;SDS011;11392;57.390;-2.468;2023-03-29T16:18:26;17.25;;;10.60;;
22449;SDS011;11392;57.390;-2.468;2023-03-29T16:20:53;16.70;;;11.45;;
22449;SDS011;11392;57.390;-2.468;2023-03-29T16:23:20;25.75;;;12.60;;
22449;SDS011;11392;57.390;-2.468;2023-03-29T16:25:47;23.80;;;12.63;;
22449;SDS011;11392;57.390;-2.468;2023-03-29T16:28:14;23.02;;;13.68;;
22449;SDS011;11392;57.390;-2.468;2023-03-29T16:30:41;25.02;;;13.73;;
22449;SDS011;11392;57.390;-2.468;2023-03-29T16:33:09;25.80;;;15.20;;
22449;SDS011;11392;57.390;-2.468;2023-03-29T16:35:37;26.70;;;15.98;;